sensor_id;sensor_type;location;lat;lon;timestamp;pressure;altitude;pressure_sealevel;temperature;humidity
51526;BME280;37611;51.794;21.590;2023-04-27T00:01:19;99951.45;;;2.29;89.51
51526;BME280;37611;51.794;21.590;2023-04-27T00:05:21;99955.91;;;2.27;89.42
51526;BME280;37611;51.794;21.590;2023-04-27T00:09:23;99956.34;;;2.21;89.68
51526;BME280;37611;51.794;21.590;2023-04-27T00:13:26;99957.70;;;2.15;90.31
51526;BME280;37611;51.794;21.590;2023-04-27T00:17:27;99957.39;;;2.15;90.10
51526;BME280;37611;51.794;21.590;2023-04-27T00:21:29;99962.70;;;2.08;90.71
51526;BME280;37611;51.794;21.590;2023-04-27T00:25:32;99965.80;;;2.00;90.60
51526;BME280;37611;51.794;21.590;2023-04-27T00:29:34;99963.73;;;1.91;90.95
51526;BME280;37611;51.794;21.590;2023-04-27T00:33:36;99966.61;;;1.87;91.48
51526;BME280;37611;51.794;21.590;2023-04-27T00:37:37;99968.48;;;1.88;92.00
51526;BME280;37611;51.794;21.590;2023-04-27T00:41:40;99966.73;;;1.85;92.43
51526;BME280;37611;51.794;21.590;2023-04-27T00:45:42;99972.51;;;1.79;92.02
51526;BME280;37611;51.794;21.590;2023-04-27T00:49:44;99975.13;;;1.70;91.96
51526;BME280;37611;51.794;21.590;2023-04-27T00:53:46;99975.98;;;1.62;93.77
51526;BME280;37611;51.794;21.590;2023-04-27T00:57:47;99977.15;;;1.60;93.79
51526;BME280;37611;51.794;21.590;2023-04-27T01:01:50;99981.11;;;1.57;93.04
51526;BME280;37611;51.794;21.590;2023-04-27T01:05:52;99983.04;;;1.51;93.59
51526;BME280;37611;51.794;21.590;2023-04-27T01:09:54;99986.11;;;1.49;93.50
51526;BME280;37611;51.794;21.590;2023-04-27T01:13:56;99989.45;;;1.45;93.02
51526;BME280;37611;51.794;21.590;2023-04-27T01:17:59;99988.08;;;1.39;93.28
51526;BME280;37611;51.794;21.590;2023-04-27T01:22:01;99992.29;;;1.33;93.52
51526;BME280;37611;51.794;21.590;2023-04-27T01:26:03;99993.52;;;1.21;93.57
51526;BME280;37611;51.794;21.590;2023-04-27T01:30:06;99993.45;;;1.13;93.76
51526;BME280;37611;51.794;21.590;2023-04-27T01:34:07;99995.98;;;1.06;93.99
51526;BME280;37611;51.794;21.590;2023-04-27T01:38:10;100000.19;;;0.96;94.24
51526;BME280;37611;51.794;21.590;2023-04-27T01:42:12;100000.11;;;0.91;94.37
51526;BME280;37611;51.794;21.590;2023-04-27T01:46:13;100000.98;;;0.91;94.45
51526;BME280;37611;51.794;21.590;2023-04-27T01:50:16;100002.95;;;0.90;94.63
51526;BME280;37611;51.794;21.590;2023-04-27T01:54:18;100008.05;;;0.88;94.61
51526;BME280;37611;51.794;21.590;2023-04-27T01:58:20;100006.52;;;0.82;94.81
51526;BME280;37611;51.794;21.590;2023-04-27T02:02:21;100012.24;;;0.75;94.90
51526;BME280;37611;51.794;21.590;2023-04-27T02:06:23;100009.31;;;0.66;94.98
51526;BME280;37611;51.794;21.590;2023-04-27T02:10:25;100010.34;;;0.55;95.19
51526;BME280;37611;51.794;21.590;2023-04-27T02:14:27;100010.83;;;0.46;95.67
51526;BME280;37611;51.794;21.590;2023-04-27T02:18:29;100009.67;;;0.39;96.10
51526;BME280;37611;51.794;21.590;2023-04-27T02:22:31;100016.04;;;0.36;96.33
51526;BME280;37611;51.794;21.590;2023-04-27T02:26:33;100015.31;;;0.34;96.28
51526;BME280;37611;51.794;21.590;2023-04-27T02:30:35;100014.48;;;0.28;96.37
51526;BME280;37611;51.794;21.590;2023-04-27T02:34:37;100012.89;;;0.19;96.38
51526;BME280;37611;51.794;21.590;2023-04-27T02:38:39;100014.02;;;0.11;96.43
51526;BME280;37611;51.794;21.590;2023-04-27T02:42:41;100013.44;;;0.06;96.61
51526;BME280;37611;51.794;21.590;2023-04-27T02:46:43;100013.38;;;0.01;96.96
51526;BME280;37611;51.794;21.590;2023-04-27T02:50:44;100024.30;;;-0.04;97.13
51526;BME280;37611;51.794;21.590;2023-04-27T02:54:46;100025.55;;;-0.11;97.20
51526;BME280;37611;51.794;21.590;2023-04-27T02:58:48;100025.05;;;-0.17;97.63
51526;BME280;37611;51.794;21.590;2023-04-27T03:02:50;100025.73;;;-0.27;97.65
51526;BME280;37611;51.794;21.590;2023-04-27T03:06:51;100025.11;;;-0.32;98.28
51526;BME280;37611;51.794;21.590;2023-04-27T03:10:53;100029.95;;;-0.32;97.97
51526;BME280;37611;51.794;21.590;2023-04-27T03:14:55;100034.38;;;-0.34;97.95
51526;BME280;37611;51.794;21.590;2023-04-27T03:18:57;100035.64;;;-0.35;98.10
51526;BME280;37611;51.794;21.590;2023-04-27T03:22:59;100036.36;;;-0.36;98.09
51526;BME280;37611;51.794;21.590;2023-04-27T03:27:01;100043.14;;;-0.37;98.39
51526;BME280;37611;51.794;21.590;2023-04-27T03:31:05;100052.25;;;-0.43;98.63
51526;BME280;37611;51.794;21.590;2023-04-27T03:35:07;100056.02;;;-0.46;98.67
51526;BME280;37611;51.794;21.590;2023-04-27T03:39:10;100054.38;;;-0.44;98.71
51526;BME280;37611;51.794;21.590;2023-04-27T03:43:12;100057.04;;;-0.36;98.96
51526;BME280;37611;51.794;21.590;2023-04-27T03:47:14;100063.17;;;-0.26;99.44
51526;BME280;37611;51.794;21.590;2023-04-27T03:51:15;100067.48;;;-0.16;99.49
51526;BME280;37611;51.794;21.590;2023-04-27T03:55:17;100073.27;;;-0.05;99.38
51526;BME280;37611;51.794;21.590;2023-04-27T03:59:19;100073.72;;;0.15;99.93
51526;BME280;37611;51.794;21.590;2023-04-27T04:03:22;100081.10;;;0.34;99.96
51526;BME280;37611;51.794;21.590;2023-04-27T04:07:23;100080.89;;;0.50;99.95
51526;BME280;37611;51.794;21.590;2023-04-27T04:11:25;100078.94;;;0.66;99.96
51526;BME280;37611;51.794;21.590;2023-04-27T04:15:27;100077.61;;;0.81;100.00
51526;BME280;37611;51.794;21.590;2023-04-27T04:19:29;100075.49;;;0.96;100.00
51526;BME280;37611;51.794;21.590;2023-04-27T04:23:31;100086.77;;;1.22;100.00
51526;BME280;37611;51.794;21.590;2023-04-27T04:27:34;100092.69;;;1.67;99.96
51526;BME280;37611;51.794;21.590;2023-04-27T04:31:36;100086.35;;;2.30;99.96
51526;BME280;37611;51.794;21.590;2023-04-27T04:35:39;100093.13;;;2.96;99.63
51526;BME280;37611;51.794;21.590;2023-04-27T04:39:42;100099.33;;;3.56;98.92
51526;BME280;37611;51.794;21.590;2023-04-27T04:43:43;100105.13;;;4.12;97.79
51526;BME280;37611;51.794;21.590;2023-04-27T04:47:47;100103.61;;;4.65;96.49
51526;BME280;37611;51.794;21.590;2023-04-27T04:51:49;100104.11;;;5.14;95.11
51526;BME280;37611;51.794;21.590;2023-04-27T04:55:51;100108.30;;;5.64;93.99
51526;BME280;37611;51.794;21.590;2023-04-27T04:59:53;100111.45;;;6.03;92.33
51526;BME280;37611;51.794;21.590;2023-04-27T05:03:55;100111.16;;;6.28;90.85
51526;BME280;37611;51.794;21.590;2023-04-27T05:07:56;100111.83;;;6.67;90.08
51526;BME280;37611;51.794;21.590;2023-04-27T05:12:00;100111.55;;;6.97;88.60
51526;BME280;37611;51.794;21.590;2023-04-27T05:16:06;100112.59;;;7.09;88.27
51526;BME280;37611;51.794;21.590;2023-04-27T05:20:08;100112.91;;;7.12;86.12
51526;BME280;37611;51.794;21.590;2023-04-27T05:24:11;100113.83;;;6.77;85.24
51526;BME280;37611;51.794;21.590;2023-04-27T05:28:13;100117.27;;;6.60;85.10
51526;BME280;37611;51.794;21.590;2023-04-27T05:32:15;100124.58;;;6.58;86.32
51526;BME280;37611;51.794;21.590;2023-04-27T05:36:16;100122.83;;;6.84;84.60
51526;BME280;37611;51.794;21.590;2023-04-27T05:40:18;100123.55;;;7.09;84.76
51526;BME280;37611;51.794;21.590;2023-04-27T05:44:20;100122.48;;;7.49;83.47
51526;BME280;37611;51.794;21.590;2023-04-27T05:48:22;100128.75;;;7.72;82.85
51526;BME280;37611;51.794;21.590;2023-04-27T05:52:23;100133.55;;;7.79;81.88
51526;BME280;37611;51.794;21.590;2023-04-27T05:56:31;100135.13;;;7.91;82.01
51526;BME280;37611;51.794;21.590;2023-04-27T06:00:36;100142.15;;;8.23;80.29
51526;BME280;37611;51.794;21.590;2023-04-27T06:04:38;100145.75;;;8.42;79.22
51526;BME280;37611;51.794;21.590;2023-04-27T06:08:41;100150.71;;;8.53;78.80
51526;BME280;37611;51.794;21.590;2023-04-27T06:12:42;100149.64;;;8.77;78.68
51526;BME280;37611;51.794;21.590;2023-04-27T06:16:44;100149.13;;;9.06;77.82
51526;BME280;37611;51.794;21.590;2023-04-27T06:20:46;100150.14;;;9.25;76.86
51526;BME280;37611;51.794;21.590;2023-04-27T06:24:48;100152.78;;;9.67;77.38
51526;BME280;37611;51.794;21.590;2023-04-27T06:28:50;100154.86;;;9.75;76.75
51526;BME280;37611;51.794;21.590;2023-04-27T06:32:52;100151.46;;;9.89;75.12
51526;BME280;37611;51.794;21.590;2023-04-27T06:36:54;100153.30;;;10.10;75.33
51526;BME280;37611;51.794;21.590;2023-04-27T06:40:56;100154.09;;;10.29;74.11
51526;BME280;37611;51.794;21.590;2023-04-27T06:44:57;100154.51;;;10.69;72.72
51526;BME280;37611;51.794;21.590;2023-04-27T06:48:59;100155.56;;;10.52;71.30
51526;BME280;37611;51.794;21.590;2023-04-27T06:53:02;100159.01;;;10.51;71.50
51526;BME280;37611;51.794;21.590;2023-04-27T06:57:03;100156.14;;;10.82;71.00
51526;BME280;37611;51.794;21.590;2023-04-27T07:01:07;100157.13;;;10.96;69.79
51526;BME280;37611;51.794;21.590;2023-04-27T07:05:09;100160.76;;;11.00;68.42
51526;BME280;37611;51.794;21.590;2023-04-27T07:09:11;100156.60;;;11.19;67.72
51526;BME280;37611;51.794;21.590;2023-04-27T07:13:13;100151.02;;;11.29;66.57
51526;BME280;37611;51.794;21.590;2023-04-27T07:17:15;100152.48;;;11.37;66.59
51526;BME280;37611;51.794;21.590;2023-04-27T07:21:17;100152.26;;;11.72;64.44
51526;BME280;37611;51.794;21.590;2023-04-27T07:25:19;100156.20;;;11.84;62.74
51526;BME280;37611;51.794;21.590;2023-04-27T07:29:21;100158.08;;;11.90;62.07
51526;BME280;37611;51.794;21.590;2023-04-27T07:33:23;100165.25;;;11.89;61.16
51526;BME280;37611;51.794;21.590;2023-04-27T07:37:25;100165.08;;;12.09;62.44
51526;BME280;37611;51.794;21.590;2023-04-27T07:41:27;100165.24;;;12.53;61.66
51526;BME280;37611;51.794;21.590;2023-04-27T07:45:29;100160.34;;;12.66;58.56
51526;BME280;37611;51.794;21.590;2023-04-27T07:49:35;100160.98;;;12.57;57.65
51526;BME280;37611;51.794;21.590;2023-04-27T07:53:37;100160.27;;;12.68;57.92
51526;BME280;37611;51.794;21.590;2023-04-27T07:57:39;100158.52;;;12.90;56.45
51526;BME280;37611;51.794;21.590;2023-04-27T08:01:41;100157.85;;;13.13;56.13
51526;BME280;37611;51.794;21.590;2023-04-27T08:05:43;100160.38;;;13.25;56.15
51526;BME280;37611;51.794;21.590;2023-04-27T08:09:45;100156.10;;;13.42;54.01
51526;BME280;37611;51.794;21.590;2023-04-27T08:13:46;100157.06;;;13.13;53.03
51526;BME280;37611;51.794;21.590;2023-04-27T08:17:48;100157.88;;;12.90;54.05
51526;BME280;37611;51.794;21.590;2023-04-27T08:21:50;100151.17;;;13.31;53.85
51526;BME280;37611;51.794;21.590;2023-04-27T08:25:52;100156.78;;;13.44;51.75
51526;BME280;37611;51.794;21.590;2023-04-27T08:29:53;100159.43;;;13.32;52.84
51526;BME280;37611;51.794;21.590;2023-04-27T08:33:55;100158.74;;;13.09;52.97
51526;BME280;37611;51.794;21.590;2023-04-27T08:37:58;100157.51;;;12.93;51.68
51526;BME280;37611;51.794;21.590;2023-04-27T08:42:00;100151.81;;;13.00;51.63
51526;BME280;37611;51.794;21.590;2023-04-27T08:46:02;100150.27;;;13.03;48.49
51526;BME280;37611;51.794;21.590;2023-04-27T08:50:04;100150.55;;;12.84;49.20
51526;BME280;37611;51.794;21.590;2023-04-27T08:54:06;100152.98;;;12.54;47.70
51526;BME280;37611;51.794;21.590;2023-04-27T08:58:08;100148.84;;;12.48;49.07
51526;BME280;37611;51.794;21.590;2023-04-27T09:02:19;100147.52;;;12.51;48.64
51526;BME280;37611;51.794;21.590;2023-04-27T09:06:29;100144.66;;;12.70;48.24
51526;BME280;37611;51.794;21.590;2023-04-27T09:10:49;100144.77;;;12.78;47.23
51526;BME280;37611;51.794;21.590;2023-04-27T09:14:56;100144.63;;;12.42;47.22
51526;BME280;37611;51.794;21.590;2023-04-27T09:18:58;100148.55;;;12.04;48.34
51526;BME280;37611;51.794;21.590;2023-04-27T09:23:00;100153.98;;;11.87;48.74
51526;BME280;37611;51.794;21.590;2023-04-27T09:27:03;100163.52;;;11.51;48.89
51526;BME280;37611;51.794;21.590;2023-04-27T09:31:05;100167.06;;;11.16;49.78
51526;BME280;37611;51.794;21.590;2023-04-27T09:35:20;100171.28;;;10.57;51.77
51526;BME280;37611;51.794;21.590;2023-04-27T09:39:22;100165.88;;;10.12;53.13
51526;BME280;37611;51.794;21.590;2023-04-27T09:43:24;100164.73;;;9.87;54.04
51526;BME280;37611;51.794;21.590;2023-04-27T09:47:28;100163.66;;;9.89;54.84
51526;BME280;37611;51.794;21.590;2023-04-27T09:51:30;100157.31;;;10.10;54.87
51526;BME280;37611;51.794;21.590;2023-04-27T09:55:40;100155.67;;;10.22;55.06
51526;BME280;37611;51.794;21.590;2023-04-27T09:59:58;100155.98;;;10.43;54.58
51526;BME280;37611;51.794;21.590;2023-04-27T10:08:34;100156.52;;;10.77;52.64
51526;BME280;37611;51.794;21.590;2023-04-27T10:12:36;100160.58;;;10.75;52.24
51526;BME280;37611;51.794;21.590;2023-04-27T10:16:43;100164.79;;;10.73;52.47
51526;BME280;37611;51.794;21.590;2023-04-27T10:20:45;100162.78;;;10.59;52.32
51526;BME280;37611;51.794;21.590;2023-04-27T10:24:49;100155.49;;;10.60;52.03
51526;BME280;37611;51.794;21.590;2023-04-27T10:29:06;100146.91;;;10.75;52.65
51526;BME280;37611;51.794;21.590;2023-04-27T10:33:10;100143.82;;;10.92;51.53
51526;BME280;37611;51.794;21.590;2023-04-27T10:37:12;100142.27;;;11.06;51.73
51526;BME280;37611;51.794;21.590;2023-04-27T10:41:15;100147.64;;;11.26;51.40
51526;BME280;37611;51.794;21.590;2023-04-27T10:45:27;100152.98;;;11.32;49.79
51526;BME280;37611;51.794;21.590;2023-04-27T10:49:29;100151.04;;;11.36;50.14
51526;BME280;37611;51.794;21.590;2023-04-27T10:53:35;100152.34;;;11.39;50.10
51526;BME280;37611;51.794;21.590;2023-04-27T10:57:45;100151.28;;;11.41;50.11
51526;BME280;37611;51.794;21.590;2023-04-27T11:01:48;100153.17;;;11.53;50.73
51526;BME280;37611;51.794;21.590;2023-04-27T11:06:02;100152.50;;;11.74;51.40
51526;BME280;37611;51.794;21.590;2023-04-27T11:10:06;100156.70;;;11.86;50.90
51526;BME280;37611;51.794;21.590;2023-04-27T11:14:12;100165.25;;;11.76;51.08
51526;BME280;37611;51.794;21.590;2023-04-27T11:18:15;100170.30;;;11.74;51.14
51526;BME280;37611;51.794;21.590;2023-04-27T11:22:17;100168.84;;;11.72;51.63
51526;BME280;37611;51.794;21.590;2023-04-27T11:26:21;100166.86;;;11.72;51.84
51526;BME280;37611;51.794;21.590;2023-04-27T11:30:23;100172.46;;;11.62;51.44
51526;BME280;37611;51.794;21.590;2023-04-27T11:34:25;100183.08;;;11.49;50.92
51526;BME280;37611;51.794;21.590;2023-04-27T11:38:32;100181.66;;;11.38;51.39
51526;BME280;37611;51.794;21.590;2023-04-27T11:42:34;100180.89;;;11.37;51.82
51526;BME280;37611;51.794;21.590;2023-04-27T11:46:36;100178.91;;;11.31;51.68
51526;BME280;37611;51.794;21.590;2023-04-27T11:50:38;100184.35;;;11.29;52.32
51526;BME280;37611;51.794;21.590;2023-04-27T11:54:50;100183.45;;;11.43;51.79
51526;BME280;37611;51.794;21.590;2023-04-27T11:58:53;100187.33;;;11.62;51.91
51526;BME280;37611;51.794;21.590;2023-04-27T12:02:56;100185.73;;;11.85;51.03
51526;BME280;37611;51.794;21.590;2023-04-27T12:07:00;100189.38;;;11.91;52.21
51526;BME280;37611;51.794;21.590;2023-04-27T12:11:02;100200.08;;;11.88;52.19
51526;BME280;37611;51.794;21.590;2023-04-27T12:15:05;100205.52;;;11.40;52.88
51526;BME280;37611;51.794;21.590;2023-04-27T12:19:08;100218.07;;;10.96;54.52
51526;BME280;37611;51.794;21.590;2023-04-27T12:23:10;100221.63;;;10.57;55.97
51526;BME280;37611;51.794;21.590;2023-04-27T12:27:12;100221.27;;;10.30;57.55
51526;BME280;37611;51.794;21.590;2023-04-27T12:31:14;100217.61;;;10.18;58.67
51526;BME280;37611;51.794;21.590;2023-04-27T12:35:17;100211.56;;;9.99;60.20
51526;BME280;37611;51.794;21.590;2023-04-27T12:39:21;100209.88;;;9.93;60.18
51526;BME280;37611;51.794;21.590;2023-04-27T12:43:27;100207.98;;;10.07;59.42
51526;BME280;37611;51.794;21.590;2023-04-27T12:47:29;100207.13;;;10.28;57.09
51526;BME280;37611;51.794;21.590;2023-04-27T12:51:31;100206.67;;;10.47;56.71
51526;BME280;37611;51.794;21.590;2023-04-27T12:55:34;100204.61;;;10.69;56.92
51526;BME280;37611;51.794;21.590;2023-04-27T12:59:37;100208.83;;;10.96;56.03
51526;BME280;37611;51.794;21.590;2023-04-27T13:03:43;100201.56;;;11.16;55.26
51526;BME280;37611;51.794;21.590;2023-04-27T13:07:45;100198.17;;;11.38;54.90
51526;BME280;37611;51.794;21.590;2023-04-27T13:11:46;100203.89;;;11.56;53.66
51526;BME280;37611;51.794;21.590;2023-04-27T13:15:48;100202.08;;;11.66;53.67
51526;BME280;37611;51.794;21.590;2023-04-27T13:19:50;100204.38;;;11.74;53.21
51526;BME280;37611;51.794;21.590;2023-04-27T13:23:52;100206.84;;;11.79;53.41
51526;BME280;37611;51.794;21.590;2023-04-27T13:27:55;100208.86;;;11.86;53.37
51526;BME280;37611;51.794;21.590;2023-04-27T13:31:58;100209.67;;;11.74;53.33
51526;BME280;37611;51.794;21.590;2023-04-27T13:36:00;100208.84;;;11.58;53.11
51526;BME280;37611;51.794;21.590;2023-04-27T13:40:03;100210.37;;;11.39;53.53
51526;BME280;37611;51.794;21.590;2023-04-27T13:44:06;100213.21;;;11.33;54.36
51526;BME280;37611;51.794;21.590;2023-04-27T13:48:08;100214.63;;;11.21;53.54
51526;BME280;37611;51.794;21.590;2023-04-27T13:52:10;100217.33;;;10.95;52.27
51526;BME280;37611;51.794;21.590;2023-04-27T13:56:12;100221.92;;;10.76;53.23
51526;BME280;37611;51.794;21.590;2023-04-27T14:00:14;100224.52;;;10.62;53.60
51526;BME280;37611;51.794;21.590;2023-04-27T14:04:16;100226.52;;;10.46;53.13
51526;BME280;37611;51.794;21.590;2023-04-27T14:08:18;100225.08;;;10.39;53.48
51526;BME280;37611;51.794;21.590;2023-04-27T14:12:21;100223.75;;;10.41;54.13
51526;BME280;37611;51.794;21.590;2023-04-27T14:16:23;100221.59;;;10.52;53.47
51526;BME280;37611;51.794;21.590;2023-04-27T14:20:25;100220.59;;;10.68;51.94
51526;BME280;37611;51.794;21.590;2023-04-27T14:24:28;100219.52;;;10.89;51.83
51526;BME280;37611;51.794;21.590;2023-04-27T14:28:30;100219.73;;;10.99;51.08
51526;BME280;37611;51.794;21.590;2023-04-27T14:32:32;100225.85;;;10.90;50.34
51526;BME280;37611;51.794;21.590;2023-04-27T14:36:34;100225.52;;;10.79;51.45
51526;BME280;37611;51.794;21.590;2023-04-27T14:40:36;100227.48;;;10.77;51.12
51526;BME280;37611;51.794;21.590;2023-04-27T14:44:37;100227.80;;;10.73;51.73
51526;BME280;37611;51.794;21.590;2023-04-27T14:48:39;100233.15;;;10.65;52.72
51526;BME280;37611;51.794;21.590;2023-04-27T14:52:41;100230.99;;;10.58;52.62
51526;BME280;37611;51.794;21.590;2023-04-27T14:56:43;100231.44;;;10.48;53.07
51526;BME280;37611;51.794;21.590;2023-04-27T15:00:45;100236.02;;;10.41;52.96
51526;BME280;37611;51.794;21.590;2023-04-27T15:04:47;100235.12;;;10.22;53.44
51526;BME280;37611;51.794;21.590;2023-04-27T15:08:49;100243.68;;;10.09;53.80
51526;BME280;37611;51.794;21.590;2023-04-27T15:12:51;100242.19;;;10.00;54.36
51526;BME280;37611;51.794;21.590;2023-04-27T15:16:52;100252.66;;;9.89;53.25
51526;BME280;37611;51.794;21.590;2023-04-27T15:20:55;100250.73;;;9.84;53.24
51526;BME280;37611;51.794;21.590;2023-04-27T15:24:57;100247.36;;;9.80;53.48
51526;BME280;37611;51.794;21.590;2023-04-27T15:28:59;100248.09;;;9.88;53.35
51526;BME280;37611;51.794;21.590;2023-04-27T15:33:01;100243.73;;;10.05;53.70
51526;BME280;37611;51.794;21.590;2023-04-27T15:37:02;100244.20;;;10.22;52.41
51526;BME280;37611;51.794;21.590;2023-04-27T15:41:04;100242.83;;;10.28;50.61
51526;BME280;37611;51.794;21.590;2023-04-27T15:45:07;100243.34;;;10.32;50.50
51526;BME280;37611;51.794;21.590;2023-04-27T15:49:09;100243.34;;;10.35;50.30
51526;BME280;37611;51.794;21.590;2023-04-27T15:53:12;100241.08;;;10.41;49.87
51526;BME280;37611;51.794;21.590;2023-04-27T15:57:14;100245.11;;;10.37;48.95
51526;BME280;37611;51.794;21.590;2023-04-27T16:01:16;100246.37;;;10.33;49.18
51526;BME280;37611;51.794;21.590;2023-04-27T16:05:17;100254.86;;;10.27;49.74
51526;BME280;37611;51.794;21.590;2023-04-27T16:09:21;100256.70;;;10.10;49.62
51526;BME280;37611;51.794;21.590;2023-04-27T16:13:23;100261.77;;;9.99;50.07
51526;BME280;37611;51.794;21.590;2023-04-27T16:17:30;100267.19;;;9.93;50.74
51526;BME280;37611;51.794;21.590;2023-04-27T16:21:32;100265.65;;;9.85;50.14
51526;BME280;37611;51.794;21.590;2023-04-27T16:25:34;100268.70;;;9.81;51.23
51526;BME280;37611;51.794;21.590;2023-04-27T16:29:36;100274.01;;;9.74;51.61
51526;BME280;37611;51.794;21.590;2023-04-27T16:33:38;100274.40;;;9.66;52.08
51526;BME280;37611;51.794;21.590;2023-04-27T16:37:40;100280.21;;;9.60;52.44
51526;BME280;37611;51.794;21.590;2023-04-27T16:41:41;100280.15;;;9.56;52.87
51526;BME280;37611;51.794;21.590;2023-04-27T16:45:43;100280.63;;;9.55;53.29
51526;BME280;37611;51.794;21.590;2023-04-27T16:49:45;100280.45;;;9.49;53.43
51526;BME280;37611;51.794;21.590;2023-04-27T16:53:47;100283.73;;;9.44;53.71
51526;BME280;37611;51.794;21.590;2023-04-27T16:57:52;100282.39;;;9.42;54.14
51526;BME280;37611;51.794;21.590;2023-04-27T17:01:54;100283.95;;;9.38;54.27
51526;BME280;37611;51.794;21.590;2023-04-27T17:05:55;100286.35;;;9.30;54.64
51526;BME280;37611;51.794;21.590;2023-04-27T17:09:58;100286.95;;;9.20;55.34
51526;BME280;37611;51.794;21.590;2023-04-27T17:14:00;100284.83;;;9.14;55.78
51526;BME280;37611;51.794;21.590;2023-04-27T17:18:01;100290.98;;;9.08;55.82
51526;BME280;37611;51.794;21.590;2023-04-27T17:22:06;100298.66;;;9.00;56.56
51526;BME280;37611;51.794;21.590;2023-04-27T17:26:11;100302.13;;;8.86;56.31
51526;BME280;37611;51.794;21.590;2023-04-27T17:30:16;100297.48;;;8.77;55.93
51526;BME280;37611;51.794;21.590;2023-04-27T17:34:18;100303.24;;;8.71;55.95
51526;BME280;37611;51.794;21.590;2023-04-27T17:38:20;100302.98;;;8.66;56.17
51526;BME280;37611;51.794;21.590;2023-04-27T17:42:21;100312.69;;;8.63;56.66
51526;BME280;37611;51.794;21.590;2023-04-27T17:46:24;100311.42;;;8.60;56.98
51526;BME280;37611;51.794;21.590;2023-04-27T17:50:26;100315.52;;;8.58;57.28
51526;BME280;37611;51.794;21.590;2023-04-27T17:54:29;100324.96;;;8.56;57.67
51526;BME280;37611;51.794;21.590;2023-04-27T17:58:31;100327.91;;;8.50;58.37
51526;BME280;37611;51.794;21.590;2023-04-27T18:02:33;100332.17;;;8.44;58.47
51526;BME280;37611;51.794;21.590;2023-04-27T18:06:34;100337.25;;;8.37;58.33
51526;BME280;37611;51.794;21.590;2023-04-27T18:10:37;100341.59;;;8.32;58.72
51526;BME280;37611;51.794;21.590;2023-04-27T18:14:39;100340.36;;;8.28;59.28
51526;BME280;37611;51.794;21.590;2023-04-27T18:18:40;100341.70;;;8.25;59.20
51526;BME280;37611;51.794;21.590;2023-04-27T18:22:42;100340.65;;;8.19;59.14
51526;BME280;37611;51.794;21.590;2023-04-27T18:26:44;100347.85;;;8.12;59.80
51526;BME280;37611;51.794;21.590;2023-04-27T18:30:46;100355.00;;;8.06;59.68
51526;BME280;37611;51.794;21.590;2023-04-27T18:34:47;100353.23;;;7.96;59.99
51526;BME280;37611;51.794;21.590;2023-04-27T18:38:50;100351.46;;;7.88;60.31
51526;BME280;37611;51.794;21.590;2023-04-27T18:42:52;100357.02;;;7.79;60.87
51526;BME280;37611;51.794;21.590;2023-04-27T18:46:53;100356.95;;;7.72;61.40
51526;BME280;37611;51.794;21.590;2023-04-27T18:50:55;100361.88;;;7.60;62.17
51526;BME280;37611;51.794;21.590;2023-04-27T18:54:57;100360.03;;;7.51;63.26
51526;BME280;37611;51.794;21.590;2023-04-27T18:58:59;100361.80;;;7.46;63.65
51526;BME280;37611;51.794;21.590;2023-04-27T19:03:01;100361.63;;;7.40;63.91
51526;BME280;37611;51.794;21.590;2023-04-27T19:07:03;100363.71;;;7.31;65.03
51526;BME280;37611;51.794;21.590;2023-04-27T19:11:05;100366.16;;;7.20;65.23
51526;BME280;37611;51.794;21.590;2023-04-27T19:15:07;100367.48;;;7.05;65.68
51526;BME280;37611;51.794;21.590;2023-04-27T19:19:12;100370.89;;;6.88;66.48
51526;BME280;37611;51.794;21.590;2023-04-27T19:23:15;100370.33;;;6.71;66.82
51526;BME280;37611;51.794;21.590;2023-04-27T19:27:19;100367.95;;;6.54;67.10
51526;BME280;37611;51.794;21.590;2023-04-27T19:31:21;100371.38;;;6.37;67.36
51526;BME280;37611;51.794;21.590;2023-04-27T19:35:23;100377.69;;;6.20;68.26
51526;BME280;37611;51.794;21.590;2023-04-27T19:39:26;100376.57;;;6.09;68.77
51526;BME280;37611;51.794;21.590;2023-04-27T19:43:29;100372.94;;;6.00;69.40
51526;BME280;37611;51.794;21.590;2023-04-27T19:47:31;100379.12;;;5.91;69.53
51526;BME280;37611;51.794;21.590;2023-04-27T19:51:36;100382.02;;;5.80;70.36
51526;BME280;37611;51.794;21.590;2023-04-27T19:55:38;100376.68;;;5.62;71.10
51526;BME280;37611;51.794;21.590;2023-04-27T19:59:41;100373.05;;;5.52;71.52
51526;BME280;37611;51.794;21.590;2023-04-27T20:03:43;100376.45;;;5.49;72.40
51526;BME280;37611;51.794;21.590;2023-04-27T20:07:45;100373.41;;;5.50;73.50
51526;BME280;37611;51.794;21.590;2023-04-27T20:11:46;100375.92;;;5.54;73.30
51526;BME280;37611;51.794;21.590;2023-04-27T20:15:48;100373.91;;;5.57;73.28
51526;BME280;37611;51.794;21.590;2023-04-27T20:19:50;100376.00;;;5.62;74.09
51526;BME280;37611;51.794;21.590;2023-04-27T20:23:56;100374.13;;;5.66;73.95
51526;BME280;37611;51.794;21.590;2023-04-27T20:27:58;100376.70;;;5.69;74.62
51526;BME280;37611;51.794;21.590;2023-04-27T20:32:00;100378.77;;;5.69;74.65
51526;BME280;37611;51.794;21.590;2023-04-27T20:36:02;100380.13;;;5.70;74.49
51526;BME280;37611;51.794;21.590;2023-04-27T20:40:05;100378.46;;;5.67;74.41
51526;BME280;37611;51.794;21.590;2023-04-27T20:44:08;100383.15;;;5.62;75.02
51526;BME280;37611;51.794;21.590;2023-04-27T20:48:10;100385.12;;;5.56;75.78
51526;BME280;37611;51.794;21.590;2023-04-27T20:52:13;100384.73;;;5.52;75.50
51526;BME280;37611;51.794;21.590;2023-04-27T20:56:16;100389.58;;;5.50;76.18
51526;BME280;37611;51.794;21.590;2023-04-27T21:00:17;100388.77;;;5.47;76.27
51526;BME280;37611;51.794;21.590;2023-04-27T21:04:19;100391.89;;;5.39;75.70